Terminal Aerodrome Forecast
Issued by NWS Lake Charles, LA

Current Version | Previous Version | Text Only | Print | Product List | Glossary On
Versions: 1 2 3 4 5 6 7 8 9 10 11 12 13 14 15 16 17 18
857
FTUS44 KLCH 290230 AAA
TAFARA
TAF AMD
KARA 290230Z 2903/2924 15010KT P6SM BKN012
     FM290900 14009KT 4SM BR OVC004
     FM291500 15016G24KT P6SM BKN025
     FM291800 16017G25KT P6SM SCT025 BKN050=

USA.gov is the U.S. government's official web portal to all federal, state and local government web resources and services.